Time;durP1;ratioP1;P1;durP2;ratioP2;P2;SDS_P1;SDS_P2;PMS_P1;PMS_P2;Temp;Humidity;BMP_temperature;BMP_pressure;BME280_temperature;BME280_humidity;BME280_pressure;Samples;Min_cycle;Max_cycle;Signal;HPM_P1;HPM_P2
2023/10/16 00:01:38;;;;;;;4.95;0.93;;;;;;;;;;5090380;28;20044;-68
2023/10/16 00:04:07;;;;;;;6.53;1.30;;;;;;;;;;5094581;28;20040;-68
2023/10/16 00:06:34;;;;;;;3.88;1.20;;;;;;;;;;5090098;28;20039;-68
2023/10/16 00:09:10;;;;;;;5.13;1.08;;;;;;;;;;5074962;28;20410;-68
2023/10/16 00:11:37;;;;;;;5.53;1.27;;;;;;;;;;5091372;28;20606;-68
2023/10/16 00:14:14;;;;;;;5.05;1.30;;;;;;;;;;5092784;28;20044;-68
2023/10/16 00:16:44;;;;;;;4.05;1.50;;;;;;;;;;5069821;28;20051;-68
2023/10/16 00:19:10;;;;;;;4.00;0.95;;;;;;;;;;5070282;28;20260;-68
2023/10/16 00:21:43;;;;;;;4.97;1.25;;;;;;;;;;5090798;28;20047;-68
2023/10/16 00:24:13;;;;;;;5.75;1.13;;;;;;;;;;5080566;28;20048;-68
2023/10/16 00:26:45;;;;;;;1.35;0.98;;;;;;;;;;5090323;28;20587;-68
2023/10/16 00:29:17;;;;;;;4.38;0.90;;;;;;;;;;5074393;28;20048;-68
2023/10/16 00:31:44;;;;;;;3.05;1.15;;;;;;;;;;5092146;28;20044;-68
2023/10/16 00:34:10;;;;;;;4.55;1.05;;;;;;;;;;5075821;28;20052;-68
2023/10/16 00:36:36;;;;;;;2.35;0.82;;;;;;;;;;5091485;28;20039;-68
2023/10/16 00:39:14;;;;;;;3.38;1.08;;;;;;;;;;5093261;28;20374;-68
2023/10/16 00:41:50;;;;;;;4.95;1.15;;;;;;;;;;5092213;28;20127;-68
2023/10/16 00:44:17;;;;;;;3.58;1.10;;;;;;;;;;5093577;28;20089;-68
2023/10/16 00:46:45;;;;;;;3.03;1.27;;;;;;;;;;5091669;28;20044;-68
2023/10/16 00:49:14;;;;;;;3.72;1.10;;;;;;;;;;5093519;28;20040;-68
2023/10/16 00:51:41;;;;;;;3.67;1.00;;;;;;;;;;5092157;28;20043;-68
2023/10/16 00:54:16;;;;;;;3.92;1.30;;;;;;;;;;5093005;28;20107;-68
2023/10/16 00:56:43;;;;;;;2.92;0.95;;;;;;;;;;5090287;28;20048;-68
2023/10/16 00:59:12;;;;;;;5.13;1.17;;;;;;;;;;5091772;28;20032;-68
2023/10/16 01:01:43;;;;;;;2.42;0.93;;;;;;;;;;5090593;28;20036;-68
2023/10/16 01:04:09;;;;;;;5.22;1.25;;;;;;;;;;5091960;28;20559;-69
2023/10/16 01:06:41;;;;;;;3.95;1.27;;;;;;;;;;5089286;28;20032;-68
2023/10/16 01:09:17;;;;;;;3.55;1.40;;;;;;;;;;5089223;28;20040;-68
2023/10/16 01:11:43;;;;;;;5.60;1.55;;;;;;;;;;5086884;28;20044;-68
2023/10/16 01:14:12;;;;;;;4.20;1.38;;;;;;;;;;5092931;28;20044;-68
2023/10/16 01:16:38;;;;;;;2.03;1.00;;;;;;;;;;5090432;28;20518;-68
2023/10/16 01:19:06;;;;;;;5.68;1.60;;;;;;;;;;5091189;28;20394;-68
2023/10/16 01:21:32;;;;;;;4.47;1.15;;;;;;;;;;5090222;28;20505;-68
2023/10/16 01:24:14;;;;;;;3.22;1.25;;;;;;;;;;5085585;28;20056;-68
2023/10/16 01:26:40;;;;;;;2.80;1.05;;;;;;;;;;5085799;28;20418;-68
2023/10/16 01:29:08;;;;;;;3.80;1.75;;;;;;;;;;5086765;28;20041;-68
2023/10/16 01:31:36;;;;;;;3.25;1.40;;;;;;;;;;5088835;28;20047;-68
2023/10/16 01:34:02;;;;;;;3.85;1.65;;;;;;;;;;5088702;28;20128;-68
2023/10/16 01:36:30;;;;;;;2.15;1.00;;;;;;;;;;5090170;28;20083;-68
2023/10/16 01:38:59;;;;;;;2.13;0.90;;;;;;;;;;5085014;28;20062;-68
2023/10/16 01:41:25;;;;;;;2.72;1.05;;;;;;;;;;5087648;28;20040;-68
2023/10/16 01:43:52;;;;;;;3.50;1.00;;;;;;;;;;5085611;28;20040;-68
2023/10/16 01:46:18;;;;;;;2.28;1.17;;;;;;;;;;5088380;28;20040;-68
2023/10/16 01:48:46;;;;;;;5.32;1.20;;;;;;;;;;5087266;28;20490;-68
2023/10/16 01:51:18;;;;;;;5.18;0.80;;;;;;;;;;5092034;28;20115;-68
2023/10/16 01:53:44;;;;;;;2.95;0.98;;;;;;;;;;5087940;28;20036;-69
2023/10/16 01:56:13;;;;;;;2.58;0.90;;;;;;;;;;5090509;28;20044;-68
2023/10/16 01:58:44;;;;;;;3.95;0.88;;;;;;;;;;5090603;28;20036;-68
2023/10/16 02:01:20;;;;;;;3.53;1.10;;;;;;;;;;5089775;28;20115;-68
2023/10/16 02:03:48;;;;;;;2.78;0.98;;;;;;;;;;5091075;28;20085;-68
2023/10/16 02:06:17;;;;;;;2.78;0.90;;;;;;;;;;5089107;28;20048;-68
2023/10/16 02:08:45;;;;;;;3.03;0.90;;;;;;;;;;5090903;28;20075;-68
2023/10/16 02:11:11;;;;;;;3.10;1.00;;;;;;;;;;5085020;28;20048;-68
2023/10/16 02:13:40;;;;;;;2.35;1.00;;;;;;;;;;5089716;28;20394;-68
2023/10/16 02:16:06;;;;;;;2.88;1.13;;;;;;;;;;5090377;28;20123;-68
2023/10/16 02:18:40;;;;;;;4.50;1.25;;;;;;;;;;5091843;28;20040;-68
2023/10/16 02:21:12;;;;;;;5.05;1.20;;;;;;;;;;5092014;28;20044;-68
2023/10/16 02:23:38;;;;;;;3.90;1.20;;;;;;;;;;5089793;28;20051;-68
2023/10/16 02:26:06;;;;;;;6.60;1.63;;;;;;;;;;5090416;28;20036;-68
2023/10/16 02:28:35;;;;;;;3.95;1.27;;;;;;;;;;5088094;28;20440;-68
2023/10/16 02:31:13;;;;;;;4.95;1.20;;;;;;;;;;5088238;28;20045;-68
2023/10/16 02:33:46;;;;;;;3.03;1.52;;;;;;;;;;5088177;28;20044;-68
2023/10/16 02:36:15;;;;;;;3.65;1.60;;;;;;;;;;5090613;28;20047;-68
2023/10/16 02:38:47;;;;;;;4.78;1.80;;;;;;;;;;5090884;28;20481;-68
2023/10/16 02:41:14;;;;;;;4.35;1.48;;;;;;;;;;5088963;28;20040;-68
2023/10/16 02:43:45;;;;;;;6.45;1.73;;;;;;;;;;5091156;28;20040;-68
2023/10/16 02:46:12;;;;;;;3.30;1.10;;;;;;;;;;5091140;28;20094;-68
2023/10/16 02:48:41;;;;;;;5.88;1.70;;;;;;;;;;5091183;28;20505;-68
2023/10/16 02:51:07;;;;;;;3.25;1.60;;;;;;;;;;5091363;28;20059;-68
2023/10/16 02:53:42;;;;;;;5.55;1.75;;;;;;;;;;5090109;28;20036;-68
2023/10/16 02:56:14;;;;;;;4.22;2.10;;;;;;;;;;5088672;28;20051;-68
2023/10/16 02:58:43;;;;;;;5.22;1.90;;;;;;;;;;5090182;28;20051;-68
2023/10/16 03:01:18;;;;;;;4.75;2.10;;;;;;;;;;5089866;28;20538;-68
2023/10/16 03:03:45;;;;;;;3.53;1.90;;;;;;;;;;5088733;28;20040;-68
2023/10/16 03:06:11;;;;;;;3.80;1.95;;;;;;;;;;5086382;28;20414;-68
2023/10/16 03:08:37;;;;;;;5.38;2.28;;;;;;;;;;5072456;28;20048;-68
2023/10/16 03:11:05;;;;;;;4.38;2.13;;;;;;;;;;5092979;28;20036;-69
2023/10/16 03:13:35;;;;;;;5.20;2.20;;;;;;;;;;5086254;28;20451;-68
2023/10/16 03:16:05;;;;;;;2.60;1.80;;;;;;;;;;5086288;28;20546;-68
2023/10/16 03:18:32;;;;;;;5.53;2.07;;;;;;;;;;5084528;28;20040;-68
2023/10/16 03:23:45;;;;;;;5.00;2.38;;;;;;;;;;5085047;28;20043;-68
2023/10/16 03:26:47;;;;;;;4.30;2.13;;;;;;;;;;5084093;28;20044;-68
2023/10/16 03:29:04;;;;;;;6.30;2.75;;;;;;;;;;5110231;22;20048;-72
2023/10/16 03:31:30;;;;;;;6.53;2.53;;;;;;;;;;5106622;28;20047;-72
2023/10/16 03:33:56;;;;;;;8.63;2.35;;;;;;;;;;5105646;28;20043;-72
2023/10/16 03:36:25;;;;;;;8.60;2.28;;;;;;;;;;5108065;28;20035;-71
2023/10/16 03:38:52;;;;;;;6.07;2.42;;;;;;;;;;5104772;28;20114;-71
2023/10/16 03:43:47;;;;;;;6.95;2.95;;;;;;;;;;5108674;28;20117;-71
2023/10/16 03:46:13;;;;;;;4.90;2.40;;;;;;;;;;5104454;28;20047;-71
2023/10/16 03:48:40;;;;;;;8.95;2.63;;;;;;;;;;5112422;28;20035;-71
2023/10/16 03:51:06;;;;;;;6.22;2.30;;;;;;;;;;5108964;28;20519;-71
2023/10/16 03:53:33;;;;;;;8.05;2.83;;;;;;;;;;5112533;28;20067;-71
2023/10/16 03:55:59;;;;;;;4.60;2.83;;;;;;;;;;5105059;28;20050;-71
2023/10/16 03:58:26;;;;;;;6.68;2.70;;;;;;;;;;5102424;28;20068;-71
2023/10/16 04:00:59;;;;;;;4.55;2.30;;;;;;;;;;5103840;28;20114;-71
2023/10/16 04:03:36;;;;;;;5.90;2.50;;;;;;;;;;5106324;28;20137;-71
2023/10/16 04:06:08;;;;;;;6.03;2.70;;;;;;;;;;5112746;28;20040;-71
2023/10/16 04:08:35;;;;;;;5.43;2.50;;;;;;;;;;5101537;28;20051;-71
2023/10/16 04:11:03;;;;;;;4.05;2.33;;;;;;;;;;5108077;28;20134;-70
2023/10/16 04:13:32;;;;;;;7.82;2.70;;;;;;;;;;5110227;28;20036;-70
2023/10/16 04:18:32;;;;;;;4.45;2.80;;;;;;;;;;5102360;28;20126;-70
2023/10/16 04:26:57;;;;;;;7.00;2.70;;;;;;;;;;5106386;28;20044;-70
2023/10/16 04:47:42;;;;;;;5.50;2.80;;;;;;;;;;5106873;28;20139;-70
2023/10/16 04:50:09;;;;;;;4.82;2.70;;;;;;;;;;5111884;28;20036;-70
2023/10/16 04:53:06;;;;;;;5.20;2.40;;;;;;;;;;5113754;28;20069;-70
2023/10/16 05:00:57;;;;;;;9.32;2.95;;;;;;;;;;5111883;28;20070;-70
2023/10/16 05:03:44;;;;;;;4.45;2.40;;;;;;;;;;5113157;28;20089;-70
2023/10/16 05:11:33;;;;;;;7.50;2.50;;;;;;;;;;5113718;28;20130;-70
2023/10/16 05:16:35;;;;;;;6.00;2.40;;;;;;;;;;5109666;28;20039;-70
2023/10/16 05:19:04;;;;;;;5.65;2.72;;;;;;;;;;5108218;28;20036;-70
2023/10/16 06:16:35;;;;;;;6.57;2.53;;;;;;;;;;5106494;28;20044;-72
2023/10/16 06:19:07;;;;;;;6.30;2.90;;;;;;;;;;5104199;28;20088;-72
2023/10/16 06:21:33;;;;;;;5.68;2.33;;;;;;;;;;5104820;28;20041;-72
2023/10/16 06:23:59;;;;;;;6.28;2.92;;;;;;;;;;5103226;28;20056;-72
2023/10/16 06:26:27;;;;;;;2.85;2.47;;;;;;;;;;5106887;28;20031;-72
2023/10/16 06:28:53;;;;;;;3.88;2.40;;;;;;;;;;5108214;28;20047;-72
2023/10/16 06:31:23;;;;;;;7.70;2.63;;;;;;;;;;5109632;28;20039;-72
2023/10/16 06:33:53;;;;;;;7.55;2.40;;;;;;;;;;5110835;28;20532;-72
2023/10/16 06:36:20;;;;;;;3.72;2.30;;;;;;;;;;5109591;28;20075;-72
2023/10/16 06:38:46;;;;;;;4.28;2.55;;;;;;;;;;5107356;28;20408;-72
2023/10/16 06:41:15;;;;;;;4.05;2.40;;;;;;;;;;5101373;28;20110;-72
2023/10/16 06:43:41;;;;;;;5.75;2.55;;;;;;;;;;5098673;28;20089;-71
2023/10/16 06:46:09;;;;;;;7.05;2.60;;;;;;;;;;5104125;28;20044;-71
2023/10/16 06:48:37;;;;;;;4.32;2.70;;;;;;;;;;5098412;28;20048;-71
2023/10/16 06:51:04;;;;;;;7.60;2.78;;;;;;;;;;5097483;28;20138;-71
2023/10/16 06:53:33;;;;;;;6.95;2.42;;;;;;;;;;5100425;28;20152;-71
2023/10/16 06:55:59;;;;;;;5.20;2.30;;;;;;;;;;5108914;28;20047;-71
2023/10/16 06:58:26;;;;;;;5.82;2.70;;;;;;;;;;5105629;28;20036;-71
2023/10/16 07:00:53;;;;;;;4.97;2.40;;;;;;;;;;5109342;28;20071;-71
2023/10/16 07:03:20;;;;;;;7.80;2.63;;;;;;;;;;5112145;28;20489;-71
2023/10/16 07:05:48;;;;;;;6.35;2.28;;;;;;;;;;5109694;28;20039;-70
2023/10/16 07:08:18;;;;;;;4.05;2.40;;;;;;;;;;5107930;28;20164;-71
2023/10/16 07:10:51;;;;;;;5.13;2.75;;;;;;;;;;5113176;28;20042;-71
2023/10/16 07:13:27;;;;;;;5.65;2.40;;;;;;;;;;5114357;28;20112;-71
2023/10/16 07:15:54;;;;;;;7.07;2.50;;;;;;;;;;5113934;28;20047;-71
2023/10/16 07:18:24;;;;;;;7.38;2.20;;;;;;;;;;5115027;28;20031;-71
2023/10/16 07:20:59;;;;;;;5.63;2.50;;;;;;;;;;5114420;28;20051;-71
2023/10/16 07:23:29;;;;;;;5.47;2.00;;;;;;;;;;5115835;28;20047;-71
2023/10/16 07:25:54;;;;;;;6.80;2.03;;;;;;;;;;5114779;28;20042;-71
2023/10/16 07:28:21;;;;;;;7.22;2.60;;;;;;;;;;5114233;28;20048;-71
2023/10/16 07:30:48;;;;;;;7.18;2.25;;;;;;;;;;5115544;28;20058;-71
2023/10/16 07:33:17;;;;;;;4.63;2.20;;;;;;;;;;5111311;28;20047;-72
2023/10/16 07:35:46;;;;;;;5.05;2.38;;;;;;;;;;5108799;28;20051;-72
2023/10/16 07:38:27;;;;;;;4.07;1.95;;;;;;;;;;5113553;28;20401;-72
2023/10/16 07:40:54;;;;;;;6.10;2.42;;;;;;;;;;5115607;28;20113;-72
2023/10/16 07:43:32;;;;;;;5.85;2.20;;;;;;;;;;5112838;28;20046;-72
2023/10/16 07:48:37;;;;;;;4.40;1.83;;;;;;;;;;5108901;28;20062;-72
2023/10/16 07:51:06;;;;;;;5.90;1.90;;;;;;;;;;5114568;28;20047;-72
2023/10/16 07:53:34;;;;;;;6.65;1.90;;;;;;;;;;5113087;28;20114;-71
2023/10/16 07:56:02;;;;;;;7.68;2.15;;;;;;;;;;5109134;28;20040;-71
2023/10/16 07:58:33;;;;;;;6.13;2.00;;;;;;;;;;5113858;28;20031;-71
2023/10/16 08:03:37;;;;;;;8.38;2.40;;;;;;;;;;5115499;28;20038;-71
2023/10/16 08:06:11;;;;;;;3.03;1.75;;;;;;;;;;5112990;28;20035;-71
2023/10/16 08:08:38;;;;;;;6.35;2.20;;;;;;;;;;5110605;28;20053;-71
2023/10/16 08:11:13;;;;;;;5.72;2.20;;;;;;;;;;5114530;28;20046;-71
2023/10/16 08:13:46;;;;;;;6.68;2.38;;;;;;;;;;5109263;28;20493;-71
2023/10/16 08:16:18;;;;;;;3.88;2.00;;;;;;;;;;5110081;28;20043;-72
2023/10/16 08:18:47;;;;;;;5.47;2.28;;;;;;;;;;5109157;28;20120;-71
2023/10/16 08:21:23;;;;;;;5.25;2.10;;;;;;;;;;5108852;28;20036;-71
2023/10/16 08:23:49;;;;;;;5.97;2.47;;;;;;;;;;5106013;28;20067;-71
2023/10/16 08:26:27;;;;;;;5.97;2.35;;;;;;;;;;5107486;28;20044;-71
2023/10/16 08:28:54;;;;;;;7.50;2.08;;;;;;;;;;5094018;28;20036;-71
2023/10/16 08:31:23;;;;;;;5.20;2.47;;;;;;;;;;5107763;28;20043;-71
2023/10/16 08:33:50;;;;;;;6.65;2.30;;;;;;;;;;5109412;28;20040;-71
2023/10/16 08:36:20;;;;;;;5.30;2.30;;;;;;;;;;5104783;28;20108;-72
2023/10/16 08:38:52;;;;;;;7.05;2.30;;;;;;;;;;5111741;28;20096;-72
2023/10/16 08:41:30;;;;;;;7.35;2.30;;;;;;;;;;5104228;28;20068;-72
2023/10/16 08:44:03;;;;;;;8.23;2.42;;;;;;;;;;5104242;28;20054;-72
2023/10/16 08:46:30;;;;;;;6.97;2.47;;;;;;;;;;5110013;28;20122;-72
2023/10/16 08:48:57;;;;;;;7.30;2.45;;;;;;;;;;5109218;28;20051;-72
2023/10/16 08:51:23;;;;;;;8.18;2.20;;;;;;;;;;5110891;28;20127;-72
2023/10/16 08:53:49;;;;;;;4.60;2.10;;;;;;;;;;5104670;28;20134;-72
2023/10/16 08:56:18;;;;;;;2.80;1.90;;;;;;;;;;5106134;28;20085;-71
2023/10/16 08:58:45;;;;;;;4.47;1.65;;;;;;;;;;5110846;28;20031;-71
2023/10/16 09:01:14;;;;;;;4.47;1.90;;;;;;;;;;5108141;28;20036;-71
2023/10/16 09:03:44;;;;;;;6.57;1.77;;;;;;;;;;5108026;28;20042;-72
2023/10/16 09:06:13;;;;;;;6.43;1.90;;;;;;;;;;5108108;28;20050;-72
2023/10/16 09:08:41;;;;;;;3.35;1.90;;;;;;;;;;5113283;28;20040;-72
2023/10/16 09:11:08;;;;;;;6.53;1.88;;;;;;;;;;5107328;28;20472;-72
2023/10/16 09:13:38;;;;;;;2.42;1.40;;;;;;;;;;5110051;28;20105;-72
2023/10/16 09:16:11;;;;;;;6.47;1.67;;;;;;;;;;5105342;28;20424;-72
2023/10/16 09:18:37;;;;;;;5.60;1.67;;;;;;;;;;5109622;28;20542;-72
2023/10/16 09:24:26;;;;;;;3.45;1.30;;;;;;;;;;5110135;28;20077;-72
2023/10/16 09:26:54;;;;;;;5.00;1.27;;;;;;;;;;5106287;28;20039;-72
2023/10/16 09:29:27;;;;;;;4.03;1.25;;;;;;;;;;5125954;22;20046;-68
2023/10/16 09:31:53;;;;;;;7.32;1.77;;;;;;;;;;5109051;27;20085;-66
2023/10/16 09:34:21;;;;;;;4.85;1.58;;;;;;;;;;5108623;28;20035;-67
2023/10/16 09:39:35;;;;;;;4.18;1.55;;;;;;;;;;5102847;28;20032;-67
2023/10/16 09:42:06;;;;;;;7.78;1.50;;;;;;;;;;5105254;28;20081;-67
2023/10/16 09:44:39;;;;;;;6.00;1.58;;;;;;;;;;5101908;28;20035;-67
2023/10/16 09:47:25;;;;;;;6.28;1.58;;;;;;;;;;5104591;28;20075;-67
2023/10/16 09:49:52;;;;;;;4.93;1.88;;;;;;;;;;5093126;28;20110;-67
2023/10/16 09:52:20;;;;;;;4.88;1.60;;;;;;;;;;5105373;28;20106;-67
2023/10/16 09:54:48;;;;;;;3.67;1.35;;;;;;;;;;5109554;28;20043;-67
2023/10/16 09:57:17;;;;;;;3.70;1.38;;;;;;;;;;5091296;28;20119;-67
2023/10/16 09:59:43;;;;;;;5.68;1.58;;;;;;;;;;5107484;28;20039;-67
2023/10/16 10:02:19;;;;;;;7.25;1.50;;;;;;;;;;5104865;28;20040;-67
2023/10/16 10:05:12;;;;;;;4.57;1.52;;;;;;;;;;5108653;28;20056;-67
2023/10/16 10:07:47;;;;;;;4.10;1.35;;;;;;;;;;5101622;28;20035;-67
2023/10/16 10:13:08;;;;;;;5.82;1.20;;;;;;;;;;5107873;28;20185;-68
2023/10/16 10:15:37;;;;;;;6.13;1.45;;;;;;;;;;5107397;28;20050;-68
2023/10/16 10:20:58;;;;;;;3.65;1.30;;;;;;;;;;5106661;28;20040;-68
2023/10/16 10:23:24;;;;;;;2.17;1.10;;;;;;;;;;5107676;28;20032;-68
2023/10/16 10:25:53;;;;;;;4.50;1.10;;;;;;;;;;5107704;28;20036;-68
2023/10/16 10:28:28;;;;;;;6.38;1.27;;;;;;;;;;5106888;28;20505;-68
2023/10/16 10:31:02;;;;;;;5.45;1.00;;;;;;;;;;5108157;28;20039;-68
2023/10/16 10:33:37;;;;;;;4.60;1.27;;;;;;;;;;5108157;28;20042;-68
2023/10/16 10:36:21;;;;;;;5.05;1.13;;;;;;;;;;5109694;28;20130;-68
2023/10/16 10:38:48;;;;;;;4.32;0.93;;;;;;;;;;5104162;28;20449;-68
2023/10/16 10:41:16;;;;;;;3.75;0.75;;;;;;;;;;5103245;28;20477;-68
2023/10/16 10:43:49;;;;;;;6.65;1.10;;;;;;;;;;5107030;28;20047;-68
2023/10/16 10:46:24;;;;;;;2.90;0.85;;;;;;;;;;5104546;28;20046;-68
2023/10/16 10:48:50;;;;;;;2.88;0.85;;;;;;;;;;5108297;28;20046;-68
2023/10/16 10:51:16;;;;;;;4.53;1.33;;;;;;;;;;5108264;28;20032;-68
2023/10/16 10:53:55;;;;;;;4.28;0.85;;;;;;;;;;5107572;28;20469;-68
2023/10/16 10:56:22;;;;;;;3.70;0.85;;;;;;;;;;5107930;28;20040;-68
2023/10/16 10:58:48;;;;;;;4.32;1.00;;;;;;;;;;5111493;28;20256;-68
2023/10/16 11:01:26;;;;;;;5.45;1.50;;;;;;;;;;5112216;28;20034;-68
2023/10/16 11:03:54;;;;;;;4.45;0.80;;;;;;;;;;5104772;28;20043;-68
2023/10/16 11:06:20;;;;;;;3.53;1.00;;;;;;;;;;5106793;28;20312;-68
2023/10/16 11:08:50;;;;;;;2.20;0.73;;;;;;;;;;5086981;28;20436;-68
2023/10/16 11:11:16;;;;;;;3.20;1.25;;;;;;;;;;5104049;28;20043;-68
2023/10/16 11:13:46;;;;;;;6.93;1.20;;;;;;;;;;5104334;28;20050;-67
2023/10/16 11:16:12;;;;;;;4.13;1.30;;;;;;;;;;5090814;28;20067;-67
2023/10/16 11:18:38;;;;;;;3.90;0.73;;;;;;;;;;5110121;28;20031;-67
2023/10/16 11:21:04;;;;;;;4.80;1.00;;;;;;;;;;5091680;28;20039;-67
2023/10/16 11:23:31;;;;;;;9.15;1.10;;;;;;;;;;5110454;28;20455;-67
2023/10/16 11:25:58;;;;;;;4.30;0.93;;;;;;;;;;5109287;28;20493;-67
2023/10/16 11:28:32;;;;;;;5.03;1.10;;;;;;;;;;5109383;28;20036;-67
2023/10/16 11:30:59;;;;;;;3.03;0.90;;;;;;;;;;5106782;28;20078;-68
2023/10/16 11:33:35;;;;;;;4.10;1.00;;;;;;;;;;5110784;28;20035;-68
2023/10/16 11:36:06;;;;;;;1.45;1.00;;;;;;;;;;5110855;28;20123;-68
2023/10/16 11:38:35;;;;;;;4.28;0.85;;;;;;;;;;5104710;28;20503;-68
2023/10/16 11:41:05;;;;;;;3.25;0.70;;;;;;;;;;5090042;28;20040;-68
2023/10/16 11:43:33;;;;;;;3.08;0.70;;;;;;;;;;5108695;28;20084;-68
2023/10/16 11:46:05;;;;;;;3.63;0.60;;;;;;;;;;5108819;28;20043;-68
2023/10/16 11:51:15;;;;;;;4.30;0.98;;;;;;;;;;5108882;28;20089;-68
2023/10/16 11:53:41;;;;;;;7.10;0.90;;;;;;;;;;5105367;28;20088;-68
2023/10/16 11:56:09;;;;;;;3.17;0.80;;;;;;;;;;5108384;28;20052;-68
2023/10/16 11:58:36;;;;;;;4.50;1.10;;;;;;;;;;5112810;28;20089;-68
2023/10/16 12:01:09;;;;;;;3.72;0.80;;;;;;;;;;5111673;28;20040;-68
2023/10/16 12:03:37;;;;;;;4.47;0.90;;;;;;;;;;5110429;28;20039;-68
2023/10/16 12:06:07;;;;;;;6.90;1.00;;;;;;;;;;5111947;28;20043;-68
2023/10/16 12:08:33;;;;;;;5.07;0.98;;;;;;;;;;5111041;28;20046;-68
2023/10/16 12:11:01;;;;;;;3.63;0.70;;;;;;;;;;5110829;28;20103;-68
2023/10/16 12:13:30;;;;;;;8.25;1.17;;;;;;;;;;5111520;28;20428;-68
2023/10/16 12:15:58;;;;;;;5.65;1.17;;;;;;;;;;5092637;28;20044;-68
2023/10/16 12:18:26;;;;;;;5.25;1.27;;;;;;;;;;5094810;28;20043;-68
2023/10/16 12:20:53;;;;;;;3.08;0.80;;;;;;;;;;5114617;28;20393;-68
2023/10/16 12:23:20;;;;;;;5.22;1.02;;;;;;;;;;5111703;28;20036;-68
2023/10/16 12:25:46;;;;;;;3.30;0.70;;;;;;;;;;5113102;28;20159;-68
2023/10/16 12:28:12;;;;;;;5.30;1.40;;;;;;;;;;5111736;28;20040;-68
2023/10/16 12:30:38;;;;;;;12.73;3.42;;;;;;;;;;5111099;28;20153;-68
2023/10/16 12:33:08;;;;;;;6.13;1.17;;;;;;;;;;5111046;28;20119;-68
2023/10/16 12:35:36;;;;;;;5.45;1.38;;;;;;;;;;5104297;28;20494;-68
2023/10/16 12:38:06;;;;;;;2.63;0.90;;;;;;;;;;5113666;28;20670;-68
2023/10/16 12:40:37;;;;;;;5.00;1.07;;;;;;;;;;5108574;28;20044;-68
2023/10/16 12:43:05;;;;;;;3.97;0.87;;;;;;;;;;5110985;28;20044;-68
2023/10/16 12:45:32;;;;;;;4.75;1.42;;;;;;;;;;5113747;28;20110;-68
2023/10/16 12:47:58;;;;;;;5.85;1.45;;;;;;;;;;5113193;28;20048;-68
2023/10/16 12:50:25;;;;;;;5.15;0.80;;;;;;;;;;5112241;28;20120;-68
2023/10/16 12:52:51;;;;;;;2.97;1.10;;;;;;;;;;5112937;28;20070;-68
2023/10/16 12:55:19;;;;;;;3.17;1.00;;;;;;;;;;5107857;28;20448;-68
2023/10/16 12:57:45;;;;;;;6.75;1.00;;;;;;;;;;5111461;28;20036;-68
2023/10/16 13:00:16;;;;;;;5.30;1.08;;;;;;;;;;5106182;28;20040;-68
2023/10/16 13:02:51;;;;;;;3.13;0.80;;;;;;;;;;5111912;28;20401;-68
2023/10/16 13:05:18;;;;;;;3.58;0.75;;;;;;;;;;5111899;28;20028;-68
2023/10/16 13:07:44;;;;;;;4.55;1.08;;;;;;;;;;5110935;28;20430;-68
2023/10/16 13:10:14;;;;;;;4.30;1.77;;;;;;;;;;5108648;28;20122;-68
2023/10/16 13:12:43;;;;;;;7.33;1.50;;;;;;;;;;5112761;28;20032;-68
2023/10/16 13:15:10;;;;;;;4.65;1.40;;;;;;;;;;5109005;28;20286;-68
2023/10/16 13:17:37;;;;;;;4.57;1.35;;;;;;;;;;5107479;28;20465;-68
2023/10/16 13:20:19;;;;;;;2.42;0.80;;;;;;;;;;5111086;28;20374;-68
2023/10/16 13:22:49;;;;;;;6.53;0.90;;;;;;;;;;5108567;28;20115;-68
2023/10/16 13:25:18;;;;;;;2.85;0.75;;;;;;;;;;5113545;28;20387;-68
2023/10/16 13:27:44;;;;;;;8.48;1.00;;;;;;;;;;5113488;28;20062;-68
2023/10/16 13:30:16;;;;;;;3.83;0.88;;;;;;;;;;5112950;28;20050;-68
2023/10/16 13:32:46;;;;;;;5.93;1.20;;;;;;;;;;5104726;28;20039;-68
2023/10/16 13:35:12;;;;;;;3.60;0.90;;;;;;;;;;5108842;28;20387;-68
2023/10/16 13:37:42;;;;;;;4.88;1.10;;;;;;;;;;5108139;28;20039;-68
2023/10/16 13:40:15;;;;;;;4.05;1.00;;;;;;;;;;5106631;28;20104;-68
2023/10/16 13:42:42;;;;;;;2.47;0.82;;;;;;;;;;5109262;28;20040;-68
2023/10/16 13:45:12;;;;;;;4.70;1.02;;;;;;;;;;5107635;28;20496;-68
2023/10/16 13:47:42;;;;;;;2.90;0.90;;;;;;;;;;5109865;28;20071;-68
2023/10/16 13:50:09;;;;;;;5.40;0.82;;;;;;;;;;5105875;28;20469;-68
2023/10/16 13:52:36;;;;;;;6.80;0.95;;;;;;;;;;5108818;28;20040;-68
2023/10/16 13:55:11;;;;;;;2.88;0.90;;;;;;;;;;5109285;28;20146;-68
2023/10/16 13:57:39;;;;;;;6.97;0.85;;;;;;;;;;5104212;28;20503;-68
2023/10/16 14:00:06;;;;;;;4.28;0.90;;;;;;;;;;5103989;28;20122;-68
2023/10/16 14:02:36;;;;;;;5.20;0.75;;;;;;;;;;5090537;28;20410;-68
2023/10/16 14:05:06;;;;;;;4.60;0.77;;;;;;;;;;5103218;28;20043;-68
2023/10/16 14:07:32;;;;;;;7.13;1.00;;;;;;;;;;5110044;28;20132;-68
2023/10/16 14:09:58;;;;;;;4.82;1.60;;;;;;;;;;5107861;28;20052;-68
2023/10/16 14:12:25;;;;;;;5.03;0.68;;;;;;;;;;5111074;28;20097;-68
2023/10/16 14:14:51;;;;;;;5.05;0.90;;;;;;;;;;5109199;28;20046;-68
2023/10/16 14:17:18;;;;;;;3.40;0.80;;;;;;;;;;5108954;28;20032;-68
2023/10/16 14:19:47;;;;;;;4.15;0.82;;;;;;;;;;5108792;28;20105;-68
2023/10/16 14:22:15;;;;;;;5.57;1.17;;;;;;;;;;5109137;28;20023;-68
2023/10/16 14:24:44;;;;;;;3.05;0.80;;;;;;;;;;5105929;28;20039;-68
2023/10/16 14:27:18;;;;;;;3.42;0.82;;;;;;;;;;5111314;28;20067;-68
2023/10/16 14:29:48;;;;;;;2.83;0.80;;;;;;;;;;5111120;28;20039;-68
2023/10/16 14:32:14;;;;;;;5.63;0.93;;;;;;;;;;5112316;28;20432;-68
2023/10/16 14:34:40;;;;;;;3.47;0.80;;;;;;;;;;5110860;28;20103;-68
2023/10/16 14:37:06;;;;;;;6.43;1.05;;;;;;;;;;5111878;28;20044;-68
2023/10/16 14:39:32;;;;;;;3.75;0.60;;;;;;;;;;5111258;28;20687;-68
2023/10/16 14:42:04;;;;;;;5.20;1.02;;;;;;;;;;5112427;28;20042;-68
2023/10/16 14:44:30;;;;;;;6.15;1.00;;;;;;;;;;5110837;28;20062;-68
2023/10/16 14:46:56;;;;;;;2.63;0.70;;;;;;;;;;5107901;28;20043;-68
2023/10/16 14:49:26;;;;;;;4.30;1.00;;;;;;;;;;5110154;28;20042;-68
2023/10/16 14:51:53;;;;;;;3.80;0.70;;;;;;;;;;5108432;28;20039;-68
2023/10/16 14:54:21;;;;;;;4.53;1.05;;;;;;;;;;5108835;28;20390;-68
2023/10/16 14:56:49;;;;;;;4.50;0.90;;;;;;;;;;5109951;28;20169;-68
2023/10/16 14:59:22;;;;;;;4.32;0.88;;;;;;;;;;5109184;28;20044;-68
2023/10/16 15:01:50;;;;;;;5.03;0.68;;;;;;;;;;5104944;28;20434;-68
2023/10/16 15:04:17;;;;;;;4.47;0.88;;;;;;;;;;5109788;28;20167;-68
2023/10/16 15:06:44;;;;;;;7.88;0.80;;;;;;;;;;5107548;28;20056;-68
2023/10/16 15:09:15;;;;;;;2.35;1.00;;;;;;;;;;5108642;28;20401;-68
2023/10/16 15:11:43;;;;;;;6.38;1.10;;;;;;;;;;5110861;28;20052;-68
2023/10/16 15:14:11;;;;;;;4.15;0.90;;;;;;;;;;5107886;28;20069;-68
2023/10/16 15:16:38;;;;;;;4.95;0.90;;;;;;;;;;5111590;28;20039;-68
2023/10/16 15:19:07;;;;;;;3.35;0.80;;;;;;;;;;5109537;28;20035;-68
2023/10/16 15:21:33;;;;;;;5.13;1.10;;;;;;;;;;5107084;28;20035;-68
2023/10/16 15:23:59;;;;;;;7.00;1.10;;;;;;;;;;5107778;28;20032;-68
2023/10/16 15:26:26;;;;;;;5.10;0.90;;;;;;;;;;5105677;28;20340;-68
2023/10/16 15:28:52;;;;;;;3.88;0.88;;;;;;;;;;5119795;22;20477;-67
2023/10/16 15:31:19;;;;;;;5.00;1.23;;;;;;;;;;5113141;28;20406;-67
2023/10/16 15:33:45;;;;;;;6.03;1.00;;;;;;;;;;5098180;28;20036;-64
2023/10/16 15:36:12;;;;;;;6.50;1.15;;;;;;;;;;5127239;22;20040;-64
2023/10/16 15:38:38;;;;;;;4.78;0.88;;;;;;;;;;5111997;28;20367;-65
2023/10/16 15:41:08;;;;;;;5.13;0.90;;;;;;;;;;5096949;28;20390;-65
2023/10/16 15:43:35;;;;;;;6.63;0.90;;;;;;;;;;5089334;28;20114;-65
2023/10/16 15:46:02;;;;;;;3.00;0.70;;;;;;;;;;5094722;28;20043;-65
2023/10/16 15:48:29;;;;;;;4.43;0.95;;;;;;;;;;5088981;28;20043;-65
2023/10/16 15:50:55;;;;;;;5.57;1.10;;;;;;;;;;5096069;28;20040;-65
2023/10/16 15:53:22;;;;;;;3.63;0.95;;;;;;;;;;5081263;28;20039;-65
2023/10/16 15:55:48;;;;;;;7.35;1.48;;;;;;;;;;5088818;28;20036;-65
2023/10/16 15:58:15;;;;;;;4.82;0.80;;;;;;;;;;5083680;28;20123;-65
2023/10/16 16:00:41;;;;;;;5.18;1.20;;;;;;;;;;5112514;28;20073;-66
2023/10/16 16:03:10;;;;;;;4.05;0.95;;;;;;;;;;5091117;28;20039;-65
2023/10/16 16:05:37;;;;;;;7.45;1.60;;;;;;;;;;5093458;28;20071;-64
2023/10/16 16:08:04;;;;;;;4.90;1.00;;;;;;;;;;5109919;28;20042;-65
2023/10/16 16:10:34;;;;;;;4.35;1.13;;;;;;;;;;5110821;28;20043;-65
2023/10/16 16:13:03;;;;;;;9.27;1.25;;;;;;;;;;5081115;28;20080;-65
2023/10/16 16:15:30;;;;;;;3.97;0.80;;;;;;;;;;5087875;28;20035;-66
2023/10/16 16:18:00;;;;;;;4.95;1.05;;;;;;;;;;5095750;28;20035;-65
2023/10/16 16:20:26;;;;;;;3.85;0.80;;;;;;;;;;5083350;28;20399;-65
2023/10/16 16:22:53;;;;;;;5.55;1.00;;;;;;;;;;5090293;28;20079;-65
2023/10/16 16:25:19;;;;;;;4.18;0.80;;;;;;;;;;5093222;28;20048;-66
2023/10/16 16:27:46;;;;;;;3.97;0.90;;;;;;;;;;5095317;28;20043;-65
2023/10/16 16:30:16;;;;;;;6.28;1.02;;;;;;;;;;5114155;28;20035;-64
2023/10/16 16:32:42;;;;;;;4.50;1.08;;;;;;;;;;5112353;28;20091;-65
2023/10/16 16:35:08;;;;;;;4.75;1.20;;;;;;;;;;5090077;28;20043;-65
2023/10/16 16:37:34;;;;;;;3.00;0.80;;;;;;;;;;5092401;28;20506;-65
2023/10/16 16:40:09;;;;;;;6.43;1.23;;;;;;;;;;5089504;28;20040;-65
2023/10/16 16:42:35;;;;;;;5.38;1.20;;;;;;;;;;5094798;28;20088;-66
2023/10/16 16:45:04;;;;;;;9.60;1.50;;;;;;;;;;5086855;28;20110;-66
2023/10/16 16:47:30;;;;;;;5.28;1.08;;;;;;;;;;5101149;28;20050;-66
2023/10/16 16:49:57;;;;;;;4.55;1.58;;;;;;;;;;5092416;28;20046;-65
2023/10/16 16:52:24;;;;;;;4.60;1.30;;;;;;;;;;5091944;28;20054;-65
2023/10/16 16:54:53;;;;;;;4.82;1.63;;;;;;;;;;5090624;28;20045;-65